createdAt,value
2022-08-26T00:00:53.030Z,23.14
2022-08-26T00:03:23.360Z,23.11
2022-08-26T00:05:53.577Z,23.07
2022-08-26T00:08:23.113Z,23.06
2022-08-26T00:10:51.746Z,23.04
2022-08-26T00:13:20.258Z,23.01
2022-08-26T00:15:49.263Z,23.00
2022-08-26T00:18:22.250Z,22.95
2022-08-26T00:20:52.980Z,22.94
2022-08-26T00:23:24.194Z,22.91
2022-08-26T00:25:53.101Z,22.86
2022-08-26T00:28:26.119Z,22.83
2022-08-26T00:30:58.676Z,22.79
2022-08-26T00:33:27.200Z,22.74
2022-08-26T00:35:57.157Z,22.73
2022-08-26T00:38:26.522Z,22.69
2022-08-26T00:40:57.663Z,22.66
2022-08-26T00:43:26.847Z,22.64
2022-08-26T00:45:59.568Z,22.61
2022-08-26T00:48:34.169Z,22.58
2022-08-26T00:51:10.718Z,22.56
2022-08-26T00:53:46.390Z,22.56
2022-08-26T00:56:22.116Z,22.49
2022-08-26T00:58:52.220Z,22.52
2022-08-26T01:01:23.116Z,22.44
2022-08-26T01:03:51.746Z,22.36
2022-08-26T01:06:22.653Z,22.36
2022-08-26T01:08:53.181Z,22.32
2022-08-26T01:11:22.347Z,22.30
2022-08-26T01:13:54.927Z,22.30
2022-08-26T01:16:25.827Z,22.26
2022-08-26T01:18:59.909Z,22.22
2022-08-26T01:21:36.285Z,22.22
2022-08-26T01:24:11.804Z,22.17
2022-08-26T01:26:44.961Z,22.13
2022-08-26T01:29:18.090Z,22.10
2022-08-26T01:31:48.852Z,22.08
2022-08-26T01:34:21.632Z,22.04
2022-08-26T01:36:52.959Z,22.05
2022-08-26T01:39:22.966Z,22.03
2022-08-26T01:41:55.069Z,22.01
2022-08-26T01:44:27.726Z,21.99
2022-08-26T01:46:58.997Z,21.97
2022-08-26T01:49:29.395Z,21.95
2022-08-26T01:52:01.237Z,21.94
2022-08-26T01:54:33.588Z,21.91
2022-08-26T01:57:03.528Z,21.87
2022-08-26T01:59:32.496Z,21.86
2022-08-26T02:02:01.125Z,21.81
2022-08-26T02:04:34.489Z,21.79
2022-08-26T02:07:07.495Z,21.77
2022-08-26T02:09:41.077Z,21.73
2022-08-26T02:12:11.958Z,21.71
2022-08-26T02:14:43.987Z,21.70
2022-08-26T02:17:14.031Z,21.69
2022-08-26T02:19:46.711Z,21.67
2022-08-26T02:22:19.237Z,21.67
2022-08-26T02:24:52.978Z,21.65
2022-08-26T02:27:24.257Z,21.60
2022-08-26T02:29:57.236Z,21.61
2022-08-26T02:32:27.087Z,21.58
2022-08-26T02:34:55.695Z,21.55
2022-08-26T02:37:24.424Z,21.53
2022-08-26T02:39:55.358Z,21.52
2022-08-26T02:42:25.665Z,21.48
2022-08-26T02:44:54.964Z,21.45
2022-08-26T02:47:24.882Z,21.43
2022-08-26T02:49:53.764Z,21.40
2022-08-26T02:52:22.719Z,21.38
2022-08-26T02:54:51.378Z,21.37
2022-08-26T02:57:21.283Z,21.25
2022-08-26T02:59:50.930Z,21.31
2022-08-26T03:02:19.415Z,21.28
2022-08-26T03:04:58.010Z,21.25
2022-08-26T03:07:30.842Z,21.22
2022-08-26T03:09:59.935Z,21.20
2022-08-26T03:12:29.858Z,21.18
2022-08-26T03:14:58.272Z,21.15
2022-08-26T03:17:27.022Z,21.12
2022-08-26T03:19:57.286Z,21.08
2022-08-26T03:22:27.126Z,21.02
2022-08-26T03:24:55.966Z,21.06
2022-08-26T03:27:24.379Z,21.04
2022-08-26T03:30:11.719Z,21.03
2022-08-26T03:32:41.538Z,21.01
2022-08-26T03:35:10.893Z,20.99
2022-08-26T03:37:39.907Z,20.97
2022-08-26T03:40:10.697Z,20.96
2022-08-26T03:42:39.674Z,20.94
2022-08-26T03:45:12.221Z,20.92
2022-08-26T03:47:41.426Z,20.86
2022-08-26T03:50:12.410Z,20.85
2022-08-26T03:52:43.892Z,20.82
2022-08-26T03:55:12.914Z,20.83
2022-08-26T03:57:42.467Z,20.79
2022-08-26T04:00:18.408Z,20.79
2022-08-26T04:02:51.322Z,20.76
2022-08-26T04:05:23.959Z,20.73
2022-08-26T04:07:52.527Z,20.74
2022-08-26T04:10:29.253Z,20.74
2022-08-26T04:12:59.197Z,20.73
2022-08-26T04:15:29.558Z,20.71
2022-08-26T04:17:57.947Z,20.69
2022-08-26T04:20:26.752Z,20.69
2022-08-26T04:22:55.231Z,20.68
2022-08-26T04:25:24.326Z,20.65
2022-08-26T04:27:53.065Z,20.62
2022-08-26T04:30:21.858Z,20.64
2022-08-26T04:32:51.734Z,20.62
2022-08-26T04:35:25.666Z,20.60
2022-08-26T04:37:55.665Z,20.61
2022-08-26T04:40:26.779Z,20.59
2022-08-26T04:42:55.823Z,20.60
2022-08-26T04:45:25.498Z,20.68
2022-08-26T04:47:57.078Z,20.86
2022-08-26T04:50:26.894Z,20.99
2022-08-26T04:52:55.533Z,21.10
2022-08-26T04:55:37.351Z,21.21
2022-08-26T04:58:10.458Z,21.26
2022-08-26T05:00:39.817Z,21.36
2022-08-26T05:03:10.799Z,21.43
2022-08-26T05:05:41.385Z,21.50
2022-08-26T05:08:11.334Z,21.55
2022-08-26T05:10:44.763Z,21.61
2022-08-26T05:13:15.581Z,21.67
2022-08-26T05:15:45.221Z,21.72
2022-08-26T05:18:16.870Z,21.78
2022-08-26T05:20:48.879Z,21.83
2022-08-26T05:23:17.842Z,21.82
2022-08-26T05:25:49.229Z,21.87
2022-08-26T05:28:20.697Z,21.91
2022-08-26T05:30:50.088Z,21.92
2022-08-26T05:33:20.458Z,21.96
2022-08-26T05:35:49.641Z,21.99
2022-08-26T05:38:20.621Z,22.05
2022-08-26T05:40:52.960Z,22.12
2022-08-26T05:43:22.927Z,22.17
2022-08-26T05:45:52.313Z,22.21
2022-08-26T05:48:24.356Z,22.18
2022-08-26T05:50:54.613Z,22.29
2022-08-26T05:53:25.958Z,22.26
2022-08-26T05:55:56.387Z,22.28
2022-08-26T05:58:28.040Z,22.24
2022-08-26T06:01:02.852Z,22.17
2022-08-26T06:03:34.866Z,22.13
2022-08-26T06:06:06.650Z,22.09
2022-08-26T06:08:37.383Z,22.18
2022-08-26T06:11:08.731Z,22.20
2022-08-26T06:13:47.875Z,22.19
2022-08-26T06:16:19.701Z,22.32
2022-08-26T06:18:50.868Z,22.32
2022-08-26T06:21:21.375Z,22.41
2022-08-26T06:24:09.627Z,22.41
2022-08-26T06:26:38.610Z,22.39
2022-08-26T06:29:11.179Z,22.49
2022-08-26T06:31:52.061Z,22.50
2022-08-26T06:34:22.389Z,22.61
2022-08-26T06:36:52.253Z,22.67
2022-08-26T06:39:21.712Z,22.76
2022-08-26T06:41:50.810Z,22.81
2022-08-26T06:44:20.033Z,22.87
2022-08-26T06:46:50.262Z,22.93
2022-08-26T06:49:25.722Z,23.03
2022-08-26T06:51:59.020Z,23.10
2022-08-26T06:54:27.970Z,23.15
2022-08-26T06:56:57.133Z,23.19
2022-08-26T06:59:26.082Z,23.27
2022-08-26T07:01:55.159Z,23.37
2022-08-26T07:04:25.126Z,23.42
2022-08-26T07:06:58.207Z,23.48
2022-08-26T07:09:29.421Z,23.59
2022-08-26T07:11:58.364Z,23.62
2022-08-26T07:14:27.197Z,23.63
2022-08-26T07:16:56.534Z,23.77
2022-08-26T07:19:31.129Z,23.86
2022-08-26T07:22:03.384Z,23.93
2022-08-26T07:24:32.751Z,24.00
2022-08-26T07:27:02.954Z,24.07
2022-08-26T07:29:34.591Z,24.13
2022-08-26T07:32:03.456Z,24.29
2022-08-26T07:34:33.148Z,24.31
2022-08-26T07:37:03.648Z,24.32
2022-08-26T07:39:32.968Z,24.43
2022-08-26T07:42:07.298Z,24.55
2022-08-26T07:44:37.187Z,24.74
2022-08-26T07:47:10.535Z,24.82
2022-08-26T07:49:54.792Z,24.87
2022-08-26T07:52:27.023Z,24.92
2022-08-26T07:54:56.803Z,24.94
2022-08-26T07:57:25.384Z,25.09
2022-08-26T07:59:55.213Z,25.20
2022-08-26T08:02:25.144Z,25.36
2022-08-26T08:04:54.742Z,25.47
2022-08-26T08:07:38.594Z,25.55
2022-08-26T08:10:15.301Z,25.62
2022-08-26T08:12:44.657Z,25.70
2022-08-26T08:15:15.625Z,25.80
2022-08-26T08:17:44.795Z,25.82
2022-08-26T08:20:15.181Z,26.02
2022-08-26T08:22:45.369Z,26.04
2022-08-26T08:25:15.876Z,26.19
2022-08-26T08:27:45.999Z,26.30
2022-08-26T08:30:15.526Z,26.43
2022-08-26T08:32:51.503Z,26.56
2022-08-26T08:35:22.745Z,26.69
2022-08-26T08:37:54.884Z,26.74
2022-08-26T08:40:25.497Z,26.83
2022-08-26T08:42:59.269Z,26.91
2022-08-26T08:45:36.562Z,26.95
2022-08-26T08:48:08.808Z,27.05
2022-08-26T08:50:46.043Z,27.16
2022-08-26T08:53:18.941Z,27.27
2022-08-26T08:56:03.258Z,27.51
2022-08-26T08:58:48.453Z,27.66
2022-08-26T09:01:27.355Z,27.70
2022-08-26T09:04:10.866Z,27.75
2022-08-26T09:06:41.026Z,27.73
2022-08-26T09:09:17.955Z,27.90
2022-08-26T09:11:46.417Z,27.97
2022-08-26T09:14:15.148Z,27.99
2022-08-26T09:16:52.919Z,28.11
2022-08-26T09:19:30.390Z,28.24
2022-08-26T09:22:02.272Z,28.39
2022-08-26T09:24:41.901Z,28.55
2022-08-26T09:27:37.784Z,28.57
2022-08-26T09:30:07.527Z,28.68
2022-08-26T09:32:40.387Z,28.70
2022-08-26T09:35:13.033Z,28.73
2022-08-26T09:40:24.239Z,28.82
2022-08-26T09:43:11.749Z,28.93
2022-08-26T09:45:50.802Z,29.04
2022-08-26T09:48:32.514Z,29.18
2022-08-26T09:51:07.178Z,29.17
2022-08-26T09:53:51.097Z,29.32
2022-08-26T09:56:28.383Z,29.50
2022-08-26T09:58:58.427Z,29.54
2022-08-26T10:01:32.922Z,29.64
2022-08-26T10:04:11.100Z,29.69
2022-08-26T10:06:43.434Z,29.85
2022-08-26T10:09:15.109Z,29.89
2022-08-26T10:11:49.714Z,29.97
2022-08-26T10:14:25.080Z,29.98
2022-08-26T10:16:58.431Z,30.07
2022-08-26T10:19:41.610Z,29.97
2022-08-26T10:22:27.453Z,30.07
2022-08-26T10:24:58.970Z,30.25
2022-08-26T10:27:53.410Z,30.42
2022-08-26T10:30:24.212Z,30.55
2022-08-26T10:32:57.499Z,30.55
2022-08-26T10:35:27.278Z,30.61
2022-08-26T10:37:59.893Z,30.61
2022-08-26T10:40:32.031Z,30.65
2022-08-26T10:43:11.442Z,30.84
2022-08-26T10:45:45.663Z,30.91
2022-08-26T10:48:19.589Z,30.95
2022-08-26T10:50:49.838Z,31.10
2022-08-26T10:53:25.409Z,31.24
2022-08-26T10:56:02.996Z,31.20
2022-08-26T10:58:56.504Z,31.26
2022-08-26T11:01:47.081Z,31.19
2022-08-26T11:04:48.168Z,31.19
2022-08-26T11:07:44.309Z,31.43
2022-08-26T11:10:48.787Z,31.42
2022-08-26T11:13:17.493Z,31.47
2022-08-26T11:16:09.641Z,31.62
2022-08-26T11:18:46.400Z,31.59
2022-08-26T11:21:49.380Z,31.69
2022-08-26T11:24:45.412Z,31.96
2022-08-26T11:27:57.902Z,32.01
2022-08-26T11:30:46.328Z,31.92
2022-08-26T11:33:58.171Z,32.00
2022-08-26T11:36:38.748Z,32.26
2022-08-26T11:39:19.620Z,32.32
2022-08-26T11:41:49.753Z,32.28
2022-08-26T11:44:24.193Z,32.32
2022-08-26T11:46:58.777Z,32.01
2022-08-26T11:49:28.491Z,32.27
2022-08-26T11:52:13.042Z,32.19
2022-08-26T11:54:41.918Z,32.06
2022-08-26T11:57:14.844Z,32.16
2022-08-26T11:59:45.970Z,32.03
2022-08-26T12:02:18.244Z,32.31
2022-08-26T12:04:49.603Z,32.25
2022-08-26T12:07:25.190Z,32.46
2022-08-26T12:09:56.606Z,32.34
2022-08-26T12:12:32.898Z,32.45
2022-08-26T12:15:17.937Z,32.31
2022-08-26T12:17:52.925Z,32.19
2022-08-26T12:20:46.118Z,32.37
2022-08-26T12:23:38.541Z,32.58
2022-08-26T12:26:10.550Z,32.85
2022-08-26T12:28:44.910Z,32.74
2022-08-26T12:31:13.647Z,32.76
2022-08-26T12:33:46.144Z,32.75
2022-08-26T12:36:15.408Z,33.10
2022-08-26T12:38:45.408Z,33.15
2022-08-26T12:41:14.144Z,33.18
2022-08-26T12:43:45.186Z,33.06
2022-08-26T12:46:17.801Z,33.37
2022-08-26T12:48:50.214Z,33.39
2022-08-26T12:51:25.009Z,33.38
2022-08-26T12:53:55.678Z,33.45
2022-08-26T12:56:31.452Z,33.54
2022-08-26T12:59:12.210Z,33.76
2022-08-26T13:01:44.604Z,33.81
2022-08-26T13:04:35.399Z,34.19
2022-08-26T13:07:24.848Z,34.58
2022-08-26T13:09:56.609Z,34.53
2022-08-26T13:12:30.081Z,34.67
2022-08-26T13:15:00.013Z,34.35
2022-08-26T13:17:30.123Z,34.28
2022-08-26T13:20:03.559Z,34.24
2022-08-26T13:22:33.124Z,34.20
2022-08-26T13:25:03.037Z,34.42
2022-08-26T13:27:31.583Z,34.73
2022-08-26T13:30:00.628Z,34.72
2022-08-26T13:32:30.085Z,34.51
2022-08-26T13:34:59.775Z,34.71
2022-08-26T13:37:34.484Z,34.89
2022-08-26T13:40:07.176Z,34.87
2022-08-26T13:42:35.858Z,34.90
2022-08-26T13:45:04.882Z,34.49
2022-08-26T13:47:33.383Z,34.60
2022-08-26T13:50:01.848Z,34.63
2022-08-26T13:52:31.203Z,34.70
2022-08-26T13:55:00.847Z,35.08
2022-08-26T13:57:31.397Z,35.09
2022-08-26T14:00:00.419Z,34.66
2022-08-26T14:02:31.305Z,33.96
2022-08-26T14:04:59.816Z,34.09
2022-08-26T14:07:28.233Z,34.24
2022-08-26T14:09:56.829Z,34.60
2022-08-26T14:12:25.421Z,34.75
2022-08-26T14:14:55.318Z,34.61
2022-08-26T14:17:24.832Z,34.63
2022-08-26T14:19:54.280Z,34.28
2022-08-26T14:22:24.002Z,34.24
2022-08-26T14:24:52.509Z,34.28
2022-08-26T14:27:21.002Z,34.25
2022-08-26T14:29:49.569Z,34.25
2022-08-26T14:32:25.517Z,34.02
2022-08-26T14:34:54.906Z,34.15
2022-08-26T14:37:23.798Z,34.18
2022-08-26T14:39:52.972Z,34.44
2022-08-26T14:42:24.345Z,34.10
2022-08-26T14:44:57.665Z,34.19
2022-08-26T14:47:27.693Z,34.37
2022-08-26T14:49:56.412Z,34.51
2022-08-26T14:52:25.698Z,34.37
2022-08-26T14:54:54.960Z,34.47
2022-08-26T14:57:24.363Z,34.29
2022-08-26T14:59:53.373Z,34.45
2022-08-26T15:02:33.629Z,34.11
2022-08-26T15:05:04.704Z,34.09
2022-08-26T15:07:33.379Z,33.83
2022-08-26T15:10:02.412Z,34.00
2022-08-26T15:12:32.060Z,33.81
2022-08-26T15:15:00.548Z,33.96
2022-08-26T15:17:29.396Z,34.18
2022-08-26T15:19:57.917Z,34.34
2022-08-26T15:22:29.413Z,34.39
2022-08-26T15:24:59.267Z,33.97
2022-08-26T15:27:27.888Z,33.87
2022-08-26T15:29:56.478Z,33.86
2022-08-26T15:32:24.954Z,34.03
2022-08-26T15:34:53.479Z,34.10
2022-08-26T15:37:21.896Z,33.70
2022-08-26T15:39:52.307Z,33.60
2022-08-26T15:42:21.922Z,33.76
2022-08-26T15:44:50.539Z,33.85
2022-08-26T15:47:19.507Z,33.78
2022-08-26T15:49:48.159Z,33.77
2022-08-26T15:52:17.763Z,33.79
2022-08-26T15:54:46.247Z,33.55
2022-08-26T15:57:19.084Z,33.68
2022-08-26T15:59:48.378Z,33.68
2022-08-26T16:02:16.863Z,33.53
2022-08-26T16:04:45.380Z,33.29
2022-08-26T16:07:14.206Z,32.96
2022-08-26T16:09:42.693Z,33.06
2022-08-26T16:12:11.214Z,33.03
2022-08-26T16:14:43.840Z,32.91
2022-08-26T16:17:12.657Z,32.99
2022-08-26T16:19:41.290Z,32.98
2022-08-26T16:22:09.819Z,32.90
2022-08-26T16:24:39.050Z,32.47
2022-08-26T16:27:07.784Z,32.63
2022-08-26T16:29:36.314Z,32.46
2022-08-26T16:32:09.169Z,32.57
2022-08-26T16:34:37.808Z,32.20
2022-08-26T16:37:15.817Z,32.41
2022-08-26T16:39:45.170Z,32.25
2022-08-26T16:42:13.810Z,32.35
2022-08-26T16:44:45.780Z,32.44
2022-08-26T16:47:16.906Z,32.42
2022-08-26T16:49:45.847Z,32.51
2022-08-26T16:52:14.371Z,32.48
2022-08-26T16:54:43.163Z,32.44
2022-08-26T16:57:13.263Z,32.41
2022-08-26T16:59:42.809Z,32.21
2022-08-26T17:02:12.100Z,32.09
2022-08-26T17:04:42.072Z,31.79
2022-08-26T17:07:16.612Z,31.68
2022-08-26T17:09:45.109Z,31.78
2022-08-26T17:12:13.609Z,31.93
2022-08-26T17:14:42.325Z,31.67
2022-08-26T17:17:14.211Z,31.78
2022-08-26T17:19:47.286Z,31.83
2022-08-26T17:22:16.737Z,31.69
2022-08-26T17:24:45.899Z,31.71
2022-08-26T17:27:14.263Z,31.61
2022-08-26T17:29:42.694Z,31.46
2022-08-26T17:32:11.255Z,31.25
2022-08-26T17:34:39.844Z,31.00
2022-08-26T17:37:09.740Z,30.95
2022-08-26T17:39:42.771Z,31.00
2022-08-26T17:42:12.518Z,30.93
2022-08-26T17:44:41.261Z,30.56
2022-08-26T17:47:09.722Z,30.31
2022-08-26T17:49:38.155Z,30.23
2022-08-26T17:52:11.346Z,30.14
2022-08-26T17:54:41.369Z,30.19
2022-08-26T17:57:10.660Z,30.01
2022-08-26T17:59:40.938Z,29.65
2022-08-26T18:02:09.774Z,29.73
2022-08-26T18:04:38.173Z,29.63
2022-08-26T18:07:07.297Z,29.67
2022-08-26T18:09:35.842Z,29.63
2022-08-26T18:12:06.680Z,29.53
2022-08-26T18:14:35.684Z,29.60
2022-08-26T18:17:04.220Z,29.57
2022-08-26T18:19:33.065Z,29.66
2022-08-26T18:22:01.548Z,29.70
2022-08-26T18:24:32.433Z,29.69
2022-08-26T18:27:00.868Z,29.57
2022-08-26T18:29:30.833Z,29.53
2022-08-26T18:31:59.303Z,29.48
2022-08-26T18:34:31.813Z,29.40
2022-08-26T18:37:00.628Z,29.31
2022-08-26T18:39:29.147Z,29.23
2022-08-26T18:41:57.639Z,29.09
2022-08-26T18:44:26.045Z,28.96
2022-08-26T18:46:56.272Z,28.85
2022-08-26T18:49:26.354Z,28.89
2022-08-26T18:51:55.170Z,28.83
2022-08-26T18:54:23.862Z,28.79
2022-08-26T18:56:52.523Z,28.71
2022-08-26T18:59:29.712Z,28.65
2022-08-26T19:02:00.979Z,28.59
2022-08-26T19:04:29.500Z,28.54
2022-08-26T19:06:57.979Z,28.48
2022-08-26T19:09:27.291Z,28.42
2022-08-26T19:14:30.521Z,28.18
2022-08-26T19:17:01.771Z,28.18
2022-08-26T19:19:30.672Z,28.08
2022-08-26T19:21:59.355Z,28.00
2022-08-26T19:24:28.288Z,27.94
2022-08-26T19:26:59.336Z,27.87
2022-08-26T19:29:30.798Z,27.78
2022-08-26T19:32:00.966Z,27.71
2022-08-26T19:34:29.793Z,27.64
2022-08-26T19:36:58.613Z,-139.42
2022-08-26T19:39:28.115Z,-139.42
2022-08-26T19:41:56.651Z,-139.42
2022-08-26T19:44:43.314Z,-139.42
2022-08-26T19:47:16.801Z,-139.42
2022-08-26T19:49:45.912Z,27.17
2022-08-26T19:52:14.507Z,26.98
2022-08-26T19:54:43.226Z,26.99
2022-08-26T19:57:11.879Z,26.87
2022-08-26T19:59:41.903Z,26.78
2022-08-26T20:02:11.376Z,26.68
2022-08-26T20:04:42.127Z,26.64
2022-08-26T20:07:14.136Z,26.58
2022-08-26T20:09:47.176Z,26.50
2022-08-26T20:12:16.525Z,26.43
2022-08-26T20:14:45.135Z,-139.42
2022-08-26T20:17:13.597Z,26.25
2022-08-26T20:20:00.597Z,26.14
2022-08-26T20:22:29.182Z,26.11
2022-08-26T20:24:58.457Z,26.04
2022-08-26T20:27:37.670Z,25.94
2022-08-26T20:30:09.454Z,25.52
2022-08-26T20:32:38.440Z,25.35
2022-08-26T20:35:11.846Z,25.44
2022-08-26T20:37:40.782Z,25.48
2022-08-26T20:40:11.401Z,25.46
2022-08-26T20:42:39.931Z,25.44
2022-08-26T20:45:09.866Z,25.43
2022-08-26T20:47:38.398Z,25.42
2022-08-26T20:50:09.558Z,25.39
2022-08-26T20:52:38.074Z,25.23
2022-08-26T20:55:07.513Z,25.24
2022-08-26T20:57:36.029Z,25.20
2022-08-26T21:00:05.961Z,25.13
2022-08-26T21:02:35.453Z,25.03
2022-08-26T21:05:03.990Z,25.03
2022-08-26T21:07:33.947Z,25.00
2022-08-26T21:10:02.547Z,24.95
2022-08-26T21:12:31.578Z,24.87
2022-08-26T21:15:00.830Z,24.83
2022-08-26T21:17:29.593Z,24.73
2022-08-26T21:19:58.383Z,24.73
2022-08-26T21:22:27.076Z,24.67
2022-08-26T21:24:57.000Z,24.64
2022-08-26T21:27:26.369Z,24.61
2022-08-26T21:29:56.766Z,24.55
2022-08-26T21:32:25.148Z,24.47
2022-08-26T21:34:56.293Z,24.39
2022-08-26T21:37:24.907Z,24.21
2022-08-26T21:39:54.887Z,24.27
2022-08-26T21:42:26.827Z,24.21
2022-08-26T21:44:55.800Z,24.13
2022-08-26T21:47:25.139Z,24.08
2022-08-26T21:49:54.060Z,24.03
2022-08-26T21:52:22.712Z,23.90
2022-08-26T21:54:51.210Z,23.93
2022-08-26T21:57:20.920Z,23.82
2022-08-26T21:59:50.843Z,23.72
2022-08-26T22:02:19.755Z,23.62
2022-08-26T22:04:49.214Z,23.51
2022-08-26T22:07:20.452Z,23.50
2022-08-26T22:09:49.890Z,23.47
2022-08-26T22:12:19.366Z,23.45
2022-08-26T22:14:48.397Z,23.40
2022-08-26T22:17:18.390Z,23.33
2022-08-26T22:19:46.898Z,23.20
2022-08-26T22:22:16.099Z,23.11
2022-08-26T22:24:44.878Z,23.01
2022-08-26T22:27:14.520Z,23.02
2022-08-26T22:29:43.002Z,22.91
2022-08-26T22:32:11.588Z,22.95
2022-08-26T22:34:42.169Z,22.93
2022-08-26T22:37:10.789Z,22.93
2022-08-26T22:39:39.647Z,22.90
2022-08-26T22:42:08.252Z,22.90
2022-08-26T22:44:37.867Z,22.88
2022-08-26T22:47:06.560Z,22.79
2022-08-26T22:49:35.061Z,22.71
2022-08-26T22:52:05.390Z,22.68
2022-08-26T22:54:36.569Z,22.60
2022-08-26T22:57:05.509Z,22.62
2022-08-26T22:59:34.122Z,22.61
2022-08-26T23:02:02.617Z,22.56
2022-08-26T23:04:31.200Z,22.54
2022-08-26T23:07:05.132Z,22.48
2022-08-26T23:09:33.773Z,22.50
2022-08-26T23:12:02.273Z,22.50
2022-08-26T23:14:32.978Z,22.46
2022-08-26T23:17:01.579Z,22.39
2022-08-26T23:19:30.124Z,22.38
2022-08-26T23:21:58.573Z,22.34
2022-08-26T23:24:28.641Z,22.30
2022-08-26T23:26:57.108Z,22.14
2022-08-26T23:29:25.765Z,22.17
2022-08-26T23:31:55.721Z,22.13
2022-08-26T23:34:41.349Z,22.11
2022-08-26T23:37:10.532Z,22.08
2022-08-26T23:39:40.553Z,22.05
2022-08-26T23:42:09.581Z,22.03
2022-08-26T23:44:38.167Z,21.97
2022-08-26T23:47:07.668Z,21.93
2022-08-26T23:49:37.164Z,21.87
2022-08-26T23:52:24.603Z,21.85
2022-08-26T23:54:54.810Z,21.79
2022-08-26T23:57:25.133Z,21.70
2022-08-26T23:59:54.416Z,21.66
